sensor_id;sensor_type;location;lat;lon;timestamp;P1;durP1;ratioP1;P2;durP2;ratioP2
6432;SDS011;3249;42.690;23.260;2023-05-10T00:01:08;9.17;;;8.27;;
6432;SDS011;3249;42.690;23.260;2023-05-10T00:03:37;9.37;;;8.53;;
6432;SDS011;3249;42.690;23.260;2023-05-10T00:06:06;8.37;;;7.70;;
6432;SDS011;3249;42.690;23.260;2023-05-10T00:08:36;8.93;;;8.03;;
6432;SDS011;3249;42.690;23.260;2023-05-10T00:11:05;8.63;;;7.93;;
6432;SDS011;3249;42.690;23.260;2023-05-10T00:13:33;9.17;;;8.13;;
6432;SDS011;3249;42.690;23.260;2023-05-10T00:16:05;8.80;;;8.10;;
6432;SDS011;3249;42.690;23.260;2023-05-10T00:18:34;14.27;;;9.73;;
6432;SDS011;3249;42.690;23.260;2023-05-10T00:21:04;8.93;;;8.03;;
6432;SDS011;3249;42.690;23.260;2023-05-10T00:23:33;8.90;;;8.10;;
6432;SDS011;3249;42.690;23.260;2023-05-10T00:26:03;8.73;;;7.93;;
6432;SDS011;3249;42.690;23.260;2023-05-10T00:28:32;9.20;;;8.50;;
6432;SDS011;3249;42.690;23.260;2023-05-10T00:31:02;9.13;;;8.23;;
6432;SDS011;3249;42.690;23.260;2023-05-10T00:33:33;8.70;;;8.00;;
6432;SDS011;3249;42.690;23.260;2023-05-10T00:36:03;10.50;;;9.67;;
6432;SDS011;3249;42.690;23.260;2023-05-10T00:38:33;9.30;;;8.40;;
6432;SDS011;3249;42.690;23.260;2023-05-10T00:41:02;9.63;;;8.63;;
6432;SDS011;3249;42.690;23.260;2023-05-10T00:43:34;11.33;;;10.33;;
6432;SDS011;3249;42.690;23.260;2023-05-10T00:46:06;10.57;;;9.53;;
6432;SDS011;3249;42.690;23.260;2023-05-10T00:48:34;11.67;;;10.67;;
6432;SDS011;3249;42.690;23.260;2023-05-10T00:51:04;10.90;;;9.90;;
6432;SDS011;3249;42.690;23.260;2023-05-10T00:53:33;8.90;;;8.10;;
6432;SDS011;3249;42.690;23.260;2023-05-10T00:56:03;10.70;;;9.60;;
6432;SDS011;3249;42.690;23.260;2023-05-10T00:58:32;9.93;;;9.13;;
6432;SDS011;3249;42.690;23.260;2023-05-10T01:01:01;10.50;;;9.70;;
6432;SDS011;3249;42.690;23.260;2023-05-10T01:03:33;11.47;;;10.37;;
6432;SDS011;3249;42.690;23.260;2023-05-10T01:06:04;10.93;;;10.03;;
6432;SDS011;3249;42.690;23.260;2023-05-10T01:08:35;9.63;;;8.83;;
6432;SDS011;3249;42.690;23.260;2023-05-10T01:11:04;11.00;;;10.10;;
6432;SDS011;3249;42.690;23.260;2023-05-10T01:13:34;12.03;;;10.87;;
6432;SDS011;3249;42.690;23.260;2023-05-10T01:16:07;13.37;;;11.10;;
6432;SDS011;3249;42.690;23.260;2023-05-10T01:18:39;11.30;;;10.10;;
6432;SDS011;3249;42.690;23.260;2023-05-10T01:21:17;12.40;;;11.20;;
6432;SDS011;3249;42.690;23.260;2023-05-10T01:24:02;12.90;;;11.70;;
6432;SDS011;3249;42.690;23.260;2023-05-10T01:30:25;12.90;;;11.70;;
6432;SDS011;3249;42.690;23.260;2023-05-10T01:33:18;11.80;;;10.70;;
6432;SDS011;3249;42.690;23.260;2023-05-10T01:35:51;11.73;;;10.27;;
6432;SDS011;3249;42.690;23.260;2023-05-10T01:38:29;10.83;;;9.73;;
6432;SDS011;3249;42.690;23.260;2023-05-10T01:41:05;11.60;;;10.63;;
6432;SDS011;3249;42.690;23.260;2023-05-10T01:43:41;10.93;;;9.90;;
6432;SDS011;3249;42.690;23.260;2023-05-10T01:46:17;10.33;;;9.33;;
6432;SDS011;3249;42.690;23.260;2023-05-10T01:48:56;10.00;;;9.00;;
6432;SDS011;3249;42.690;23.260;2023-05-10T01:51:28;9.50;;;8.80;;
6432;SDS011;3249;42.690;23.260;2023-05-10T01:54:04;9.60;;;8.90;;
6432;SDS011;3249;42.690;23.260;2023-05-10T01:56:36;7.90;;;7.20;;
6432;SDS011;3249;42.690;23.260;2023-05-10T01:59:08;7.60;;;7.00;;
6432;SDS011;3249;42.690;23.260;2023-05-10T02:01:42;7.83;;;7.13;;
6432;SDS011;3249;42.690;23.260;2023-05-10T02:04:16;6.97;;;6.47;;
6432;SDS011;3249;42.690;23.260;2023-05-10T02:06:47;6.30;;;5.90;;
6432;SDS011;3249;42.690;23.260;2023-05-10T02:09:18;6.30;;;5.73;;
6432;SDS011;3249;42.690;23.260;2023-05-10T02:11:49;6.73;;;6.23;;
6432;SDS011;3249;42.690;23.260;2023-05-10T02:14:19;7.67;;;7.17;;
6432;SDS011;3249;42.690;23.260;2023-05-10T02:16:50;6.33;;;5.83;;
6432;SDS011;3249;42.690;23.260;2023-05-10T02:19:24;6.80;;;6.40;;
6432;SDS011;3249;42.690;23.260;2023-05-10T02:21:58;6.33;;;5.93;;
6432;SDS011;3249;42.690;23.260;2023-05-10T02:24:29;6.57;;;6.07;;
6432;SDS011;3249;42.690;23.260;2023-05-10T02:27:00;7.67;;;6.27;;
6432;SDS011;3249;42.690;23.260;2023-05-10T02:29:31;6.30;;;5.80;;
6432;SDS011;3249;42.690;23.260;2023-05-10T02:32:01;6.00;;;5.60;;
6432;SDS011;3249;42.690;23.260;2023-05-10T02:34:34;7.60;;;5.60;;
6432;SDS011;3249;42.690;23.260;2023-05-10T02:37:04;6.10;;;5.70;;
6432;SDS011;3249;42.690;23.260;2023-05-10T02:39:34;6.07;;;5.60;;
6432;SDS011;3249;42.690;23.260;2023-05-10T02:42:04;6.50;;;5.40;;
6432;SDS011;3249;42.690;23.260;2023-05-10T02:44:35;9.20;;;5.20;;
6432;SDS011;3249;42.690;23.260;2023-05-10T02:47:07;5.60;;;5.10;;
6432;SDS011;3249;42.690;23.260;2023-05-10T02:49:39;6.43;;;5.93;;
6432;SDS011;3249;42.690;23.260;2023-05-10T02:52:08;6.53;;;6.00;;
6432;SDS011;3249;42.690;23.260;2023-05-10T02:54:41;6.30;;;5.80;;
6432;SDS011;3249;42.690;23.260;2023-05-10T02:57:16;6.37;;;5.77;;
6432;SDS011;3249;42.690;23.260;2023-05-10T02:59:46;6.13;;;5.63;;
6432;SDS011;3249;42.690;23.260;2023-05-10T03:02:16;6.90;;;6.40;;
6432;SDS011;3249;42.690;23.260;2023-05-10T03:04:47;6.57;;;5.93;;
6432;SDS011;3249;42.690;23.260;2023-05-10T03:07:16;6.37;;;5.87;;
6432;SDS011;3249;42.690;23.260;2023-05-10T03:09:47;6.73;;;6.23;;
6432;SDS011;3249;42.690;23.260;2023-05-10T03:12:18;7.27;;;6.67;;
6432;SDS011;3249;42.690;23.260;2023-05-10T03:15:02;6.90;;;6.20;;
6432;SDS011;3249;42.690;23.260;2023-05-10T03:17:40;6.27;;;5.63;;
6432;SDS011;3249;42.690;23.260;2023-05-10T03:20:21;5.93;;;5.40;;
6432;SDS011;3249;42.690;23.260;2023-05-10T03:22:54;7.53;;;6.93;;
6432;SDS011;3249;42.690;23.260;2023-05-10T03:25:29;7.07;;;6.47;;
6432;SDS011;3249;42.690;23.260;2023-05-10T03:28:01;6.53;;;5.83;;
6432;SDS011;3249;42.690;23.260;2023-05-10T03:30:33;7.13;;;6.53;;
6432;SDS011;3249;42.690;23.260;2023-05-10T03:33:06;7.27;;;6.67;;
6432;SDS011;3249;42.690;23.260;2023-05-10T03:35:42;8.20;;;6.60;;
6432;SDS011;3249;42.690;23.260;2023-05-10T03:38:13;9.97;;;7.33;;
6432;SDS011;3249;42.690;23.260;2023-05-10T03:40:42;6.77;;;6.17;;
6432;SDS011;3249;42.690;23.260;2023-05-10T03:43:11;8.03;;;6.70;;
6432;SDS011;3249;42.690;23.260;2023-05-10T03:45:41;7.17;;;6.20;;
6432;SDS011;3249;42.690;23.260;2023-05-10T03:48:10;6.83;;;6.33;;
6432;SDS011;3249;42.690;23.260;2023-05-10T03:50:43;6.90;;;6.27;;
6432;SDS011;3249;42.690;23.260;2023-05-10T03:53:12;5.97;;;5.47;;
6432;SDS011;3249;42.690;23.260;2023-05-10T03:55:41;6.03;;;5.53;;
6432;SDS011;3249;42.690;23.260;2023-05-10T03:58:10;7.30;;;6.63;;
6432;SDS011;3249;42.690;23.260;2023-05-10T04:00:39;6.30;;;5.80;;
6432;SDS011;3249;42.690;23.260;2023-05-10T04:03:12;7.40;;;6.80;;
6432;SDS011;3249;42.690;23.260;2023-05-10T04:05:43;6.97;;;6.47;;
6432;SDS011;3249;42.690;23.260;2023-05-10T04:08:12;7.80;;;7.10;;
6432;SDS011;3249;42.690;23.260;2023-05-10T04:10:42;7.07;;;6.47;;
6432;SDS011;3249;42.690;23.260;2023-05-10T04:13:11;7.30;;;6.70;;
6432;SDS011;3249;42.690;23.260;2023-05-10T04:15:41;6.87;;;6.37;;
6432;SDS011;3249;42.690;23.260;2023-05-10T04:18:10;6.97;;;6.47;;
6432;SDS011;3249;42.690;23.260;2023-05-10T04:20:39;6.67;;;6.07;;
6432;SDS011;3249;42.690;23.260;2023-05-10T04:23:10;7.73;;;7.00;;
6432;SDS011;3249;42.690;23.260;2023-05-10T04:25:39;7.40;;;6.80;;
6432;SDS011;3249;42.690;23.260;2023-05-10T04:28:08;7.97;;;7.37;;
6432;SDS011;3249;42.690;23.260;2023-05-10T04:30:38;8.20;;;7.50;;
6432;SDS011;3249;42.690;23.260;2023-05-10T04:33:07;7.50;;;6.90;;
6432;SDS011;3249;42.690;23.260;2023-05-10T04:35:36;7.73;;;7.13;;
6432;SDS011;3249;42.690;23.260;2023-05-10T04:38:05;8.10;;;7.50;;
6432;SDS011;3249;42.690;23.260;2023-05-10T04:40:36;8.93;;;8.20;;
6432;SDS011;3249;42.690;23.260;2023-05-10T04:43:06;8.80;;;7.27;;
6432;SDS011;3249;42.690;23.260;2023-05-10T04:45:35;8.43;;;7.73;;
6432;SDS011;3249;42.690;23.260;2023-05-10T04:48:04;9.43;;;8.63;;
6432;SDS011;3249;42.690;23.260;2023-05-10T04:50:33;9.30;;;8.03;;
6432;SDS011;3249;42.690;23.260;2023-05-10T04:53:03;11.00;;;8.70;;
6432;SDS011;3249;42.690;23.260;2023-05-10T04:55:32;8.63;;;7.80;;
6432;SDS011;3249;42.690;23.260;2023-05-10T04:58:04;9.07;;;8.13;;
6432;SDS011;3249;42.690;23.260;2023-05-10T05:00:33;8.30;;;7.60;;
6432;SDS011;3249;42.690;23.260;2023-05-10T05:03:02;8.10;;;7.50;;
6432;SDS011;3249;42.690;23.260;2023-05-10T05:05:31;8.93;;;8.13;;
6432;SDS011;3249;42.690;23.260;2023-05-10T05:08:00;8.13;;;7.33;;
6432;SDS011;3249;42.690;23.260;2023-05-10T05:10:29;8.40;;;7.73;;
6432;SDS011;3249;42.690;23.260;2023-05-10T05:12:58;8.77;;;7.97;;
6432;SDS011;3249;42.690;23.260;2023-05-10T05:15:29;9.33;;;8.40;;
6432;SDS011;3249;42.690;23.260;2023-05-10T05:17:58;9.30;;;8.50;;
6432;SDS011;3249;42.690;23.260;2023-05-10T05:20:28;9.03;;;8.17;;
6432;SDS011;3249;42.690;23.260;2023-05-10T05:23:00;8.80;;;8.10;;
6432;SDS011;3249;42.690;23.260;2023-05-10T05:25:29;9.20;;;8.50;;
6432;SDS011;3249;42.690;23.260;2023-05-10T05:27:58;9.57;;;8.57;;
6432;SDS011;3249;42.690;23.260;2023-05-10T05:30:30;9.07;;;8.27;;
6432;SDS011;3249;42.690;23.260;2023-05-10T05:32:59;8.83;;;8.03;;
6432;SDS011;3249;42.690;23.260;2023-05-10T05:35:28;10.47;;;9.40;;
6432;SDS011;3249;42.690;23.260;2023-05-10T05:37:57;10.43;;;8.30;;
6432;SDS011;3249;42.690;23.260;2023-05-10T05:40:26;9.10;;;8.30;;
6432;SDS011;3249;42.690;23.260;2023-05-10T05:42:55;8.53;;;7.83;;
6432;SDS011;3249;42.690;23.260;2023-05-10T05:45:25;10.83;;;9.77;;
6432;SDS011;3249;42.690;23.260;2023-05-10T05:47:56;8.53;;;7.80;;
6432;SDS011;3249;42.690;23.260;2023-05-10T05:50:25;10.97;;;9.90;;
6432;SDS011;3249;42.690;23.260;2023-05-10T05:52:54;9.33;;;8.40;;
6432;SDS011;3249;42.690;23.260;2023-05-10T05:55:23;8.83;;;8.03;;
6432;SDS011;3249;42.690;23.260;2023-05-10T05:57:52;10.83;;;8.97;;
6432;SDS011;3249;42.690;23.260;2023-05-10T06:00:21;11.63;;;10.43;;
6432;SDS011;3249;42.690;23.260;2023-05-10T06:02:51;10.37;;;9.47;;
6432;SDS011;3249;42.690;23.260;2023-05-10T06:05:22;12.27;;;10.20;;
6432;SDS011;3249;42.690;23.260;2023-05-10T06:07:52;10.90;;;9.57;;
6432;SDS011;3249;42.690;23.260;2023-05-10T06:10:21;11.77;;;10.57;;
6432;SDS011;3249;42.690;23.260;2023-05-10T06:12:51;11.00;;;10.00;;
6432;SDS011;3249;42.690;23.260;2023-05-10T06:15:20;10.80;;;9.80;;
6432;SDS011;3249;42.690;23.260;2023-05-10T06:17:49;13.67;;;11.80;;
6432;SDS011;3249;42.690;23.260;2023-05-10T06:20:24;12.97;;;11.67;;
6432;SDS011;3249;42.690;23.260;2023-05-10T06:22:54;11.40;;;10.33;;
6432;SDS011;3249;42.690;23.260;2023-05-10T06:25:23;12.60;;;11.30;;
6432;SDS011;3249;42.690;23.260;2023-05-10T06:27:52;10.97;;;9.97;;
6432;SDS011;3249;42.690;23.260;2023-05-10T06:30:23;13.00;;;11.67;;
6432;SDS011;3249;42.690;23.260;2023-05-10T06:32:54;11.33;;;10.20;;
6432;SDS011;3249;42.690;23.260;2023-05-10T06:35:26;11.53;;;10.00;;
6432;SDS011;3249;42.690;23.260;2023-05-10T06:37:55;10.47;;;9.47;;
6432;SDS011;3249;42.690;23.260;2023-05-10T06:40:24;10.30;;;9.20;;
6432;SDS011;3249;42.690;23.260;2023-05-10T06:42:53;11.13;;;10.03;;
6432;SDS011;3249;42.690;23.260;2023-05-10T06:45:22;11.53;;;10.40;;
6432;SDS011;3249;42.690;23.260;2023-05-10T06:47:51;13.20;;;8.93;;
6432;SDS011;3249;42.690;23.260;2023-05-10T06:50:20;11.17;;;10.17;;
6432;SDS011;3249;42.690;23.260;2023-05-10T06:52:52;9.60;;;8.80;;
6432;SDS011;3249;42.690;23.260;2023-05-10T06:55:21;10.57;;;9.00;;
6432;SDS011;3249;42.690;23.260;2023-05-10T06:57:50;12.10;;;11.00;;
6432;SDS011;3249;42.690;23.260;2023-05-10T07:00:20;11.53;;;10.47;;
6432;SDS011;3249;42.690;23.260;2023-05-10T07:02:49;10.20;;;9.23;;
6432;SDS011;3249;42.690;23.260;2023-05-10T07:05:18;11.47;;;9.70;;
6432;SDS011;3249;42.690;23.260;2023-05-10T07:07:47;10.87;;;9.67;;
6432;SDS011;3249;42.690;23.260;2023-05-10T07:10:19;15.97;;;9.87;;
6432;SDS011;3249;42.690;23.260;2023-05-10T07:12:48;10.17;;;9.07;;
6432;SDS011;3249;42.690;23.260;2023-05-10T07:15:18;10.87;;;9.90;;
6432;SDS011;3249;42.690;23.260;2023-05-10T07:17:47;10.07;;;9.07;;
6432;SDS011;3249;42.690;23.260;2023-05-10T07:20:17;11.97;;;10.87;;
6432;SDS011;3249;42.690;23.260;2023-05-10T07:22:46;12.53;;;11.33;;
6432;SDS011;3249;42.690;23.260;2023-05-10T07:25:15;10.60;;;9.53;;
6432;SDS011;3249;42.690;23.260;2023-05-10T07:27:47;10.93;;;9.93;;
6432;SDS011;3249;42.690;23.260;2023-05-10T07:30:16;13.80;;;10.97;;
6432;SDS011;3249;42.690;23.260;2023-05-10T07:32:45;10.13;;;9.13;;
6432;SDS011;3249;42.690;23.260;2023-05-10T07:35:14;10.10;;;8.93;;
6432;SDS011;3249;42.690;23.260;2023-05-10T07:37:43;11.20;;;10.10;;
6432;SDS011;3249;42.690;23.260;2023-05-10T07:40:13;12.00;;;9.50;;
6432;SDS011;3249;42.690;23.260;2023-05-10T07:42:45;12.87;;;10.43;;
6432;SDS011;3249;42.690;23.260;2023-05-10T07:45:13;12.30;;;9.80;;
6432;SDS011;3249;42.690;23.260;2023-05-10T07:47:42;12.07;;;10.50;;
6432;SDS011;3249;42.690;23.260;2023-05-10T07:50:11;16.30;;;10.57;;
6432;SDS011;3249;42.690;23.260;2023-05-10T07:52:41;13.30;;;9.97;;
6432;SDS011;3249;42.690;23.260;2023-05-10T07:55:10;11.50;;;9.97;;
6432;SDS011;3249;42.690;23.260;2023-05-10T07:57:39;14.13;;;10.60;;
6432;SDS011;3249;42.690;23.260;2023-05-10T08:00:12;13.97;;;11.13;;
6432;SDS011;3249;42.690;23.260;2023-05-10T08:02:45;15.90;;;11.63;;
6432;SDS011;3249;42.690;23.260;2023-05-10T08:05:15;11.83;;;10.63;;
6432;SDS011;3249;42.690;23.260;2023-05-10T08:07:46;17.87;;;11.73;;
6432;SDS011;3249;42.690;23.260;2023-05-10T08:10:16;12.00;;;10.60;;
6432;SDS011;3249;42.690;23.260;2023-05-10T08:12:46;17.50;;;11.57;;
6432;SDS011;3249;42.690;23.260;2023-05-10T08:15:18;16.50;;;11.23;;
6432;SDS011;3249;42.690;23.260;2023-05-10T08:17:48;14.30;;;11.30;;
6432;SDS011;3249;42.690;23.260;2023-05-10T08:20:17;18.07;;;12.23;;
6432;SDS011;3249;42.690;23.260;2023-05-10T08:22:46;15.63;;;11.27;;
6432;SDS011;3249;42.690;23.260;2023-05-10T08:25:15;12.90;;;10.67;;
6432;SDS011;3249;42.690;23.260;2023-05-10T08:27:45;10.93;;;9.90;;
6432;SDS011;3249;42.690;23.260;2023-05-10T08:30:14;12.53;;;11.13;;
6432;SDS011;3249;42.690;23.260;2023-05-10T08:32:47;13.03;;;11.50;;
6432;SDS011;3249;42.690;23.260;2023-05-10T08:35:15;12.43;;;11.23;;
6432;SDS011;3249;42.690;23.260;2023-05-10T08:37:44;14.00;;;9.30;;
6432;SDS011;3249;42.690;23.260;2023-05-10T08:40:13;11.07;;;9.97;;
6432;SDS011;3249;42.690;23.260;2023-05-10T08:42:45;15.20;;;11.23;;
6432;SDS011;3249;42.690;23.260;2023-05-10T08:45:23;12.60;;;11.40;;
6432;SDS011;3249;42.690;23.260;2023-05-10T08:47:53;11.87;;;10.20;;
6432;SDS011;3249;42.690;23.260;2023-05-10T08:50:22;13.87;;;11.17;;
6432;SDS011;3249;42.690;23.260;2023-05-10T08:52:54;11.97;;;10.77;;
6432;SDS011;3249;42.690;23.260;2023-05-10T08:55:26;11.47;;;10.40;;
6432;SDS011;3249;42.690;23.260;2023-05-10T08:57:56;11.90;;;10.70;;
6432;SDS011;3249;42.690;23.260;2023-05-10T09:00:27;12.97;;;10.77;;
6432;SDS011;3249;42.690;23.260;2023-05-10T09:02:57;12.30;;;11.30;;
6432;SDS011;3249;42.690;23.260;2023-05-10T09:05:28;12.67;;;11.40;;
6432;SDS011;3249;42.690;23.260;2023-05-10T09:07:57;10.77;;;9.90;;
6432;SDS011;3249;42.690;23.260;2023-05-10T09:10:27;11.53;;;10.50;;
6432;SDS011;3249;42.690;23.260;2023-05-10T09:12:58;11.53;;;10.30;;
6432;SDS011;3249;42.690;23.260;2023-05-10T09:15:31;14.20;;;11.13;;
6432;SDS011;3249;42.690;23.260;2023-05-10T09:17:59;11.03;;;10.03;;
6432;SDS011;3249;42.690;23.260;2023-05-10T09:20:30;13.87;;;11.13;;
6432;SDS011;3249;42.690;23.260;2023-05-10T09:22:59;17.50;;;10.90;;
6432;SDS011;3249;42.690;23.260;2023-05-10T09:25:28;11.63;;;10.43;;
6432;SDS011;3249;42.690;23.260;2023-05-10T09:27:58;11.67;;;10.07;;
6432;SDS011;3249;42.690;23.260;2023-05-10T09:30:31;12.00;;;9.83;;
6432;SDS011;3249;42.690;23.260;2023-05-10T09:33:01;11.67;;;10.57;;
6432;SDS011;3249;42.690;23.260;2023-05-10T09:35:31;13.67;;;11.97;;
6432;SDS011;3249;42.690;23.260;2023-05-10T09:38:03;12.17;;;11.03;;
6432;SDS011;3249;42.690;23.260;2023-05-10T09:40:33;11.40;;;10.20;;
6432;SDS011;3249;42.690;23.260;2023-05-10T09:43:03;11.97;;;9.70;;
6432;SDS011;3249;42.690;23.260;2023-05-10T09:45:36;12.57;;;10.90;;
6432;SDS011;3249;42.690;23.260;2023-05-10T09:48:05;12.50;;;10.23;;
6432;SDS011;3249;42.690;23.260;2023-05-10T09:50:35;10.03;;;9.23;;
6432;SDS011;3249;42.690;23.260;2023-05-10T09:53:04;11.80;;;10.80;;
6432;SDS011;3249;42.690;23.260;2023-05-10T09:55:40;12.87;;;11.53;;
6432;SDS011;3249;42.690;23.260;2023-05-10T09:58:11;11.77;;;10.57;;
6432;SDS011;3249;42.690;23.260;2023-05-10T10:00:44;11.97;;;10.77;;
6432;SDS011;3249;42.690;23.260;2023-05-10T10:03:18;10.80;;;9.23;;
6432;SDS011;3249;42.690;23.260;2023-05-10T10:05:48;11.17;;;10.23;;
6432;SDS011;3249;42.690;23.260;2023-05-10T10:08:18;12.47;;;10.67;;
6432;SDS011;3249;42.690;23.260;2023-05-10T10:10:48;15.03;;;13.43;;
6432;SDS011;3249;42.690;23.260;2023-05-10T10:13:17;14.37;;;11.87;;
6432;SDS011;3249;42.690;23.260;2023-05-10T10:15:49;13.03;;;11.10;;
6432;SDS011;3249;42.690;23.260;2023-05-10T10:18:21;12.03;;;10.87;;
6432;SDS011;3249;42.690;23.260;2023-05-10T10:20:52;12.13;;;11.07;;
6432;SDS011;3249;42.690;23.260;2023-05-10T10:23:24;12.13;;;10.60;;
6432;SDS011;3249;42.690;23.260;2023-05-10T10:25:54;9.73;;;8.83;;
6432;SDS011;3249;42.690;23.260;2023-05-10T10:28:28;10.53;;;9.53;;
6432;SDS011;3249;42.690;23.260;2023-05-10T10:31:15;13.90;;;9.50;;
6432;SDS011;3249;42.690;23.260;2023-05-10T10:33:59;14.53;;;9.93;;
6432;SDS011;3249;42.690;23.260;2023-05-10T10:36:30;9.40;;;8.50;;
6432;SDS011;3249;42.690;23.260;2023-05-10T10:39:07;10.90;;;9.20;;
6432;SDS011;3249;42.690;23.260;2023-05-10T10:41:38;12.30;;;10.53;;
6432;SDS011;3249;42.690;23.260;2023-05-10T10:44:26;9.40;;;8.60;;
6432;SDS011;3249;42.690;23.260;2023-05-10T10:50:04;10.87;;;9.17;;
6432;SDS011;3249;42.690;23.260;2023-05-10T10:52:36;10.57;;;9.57;;
6432;SDS011;3249;42.690;23.260;2023-05-10T10:55:06;11.40;;;10.20;;
6432;SDS011;3249;42.690;23.260;2023-05-10T10:57:43;10.33;;;9.30;;
6432;SDS011;3249;42.690;23.260;2023-05-10T11:00:18;11.73;;;9.17;;
6432;SDS011;3249;42.690;23.260;2023-05-10T11:02:55;9.50;;;8.60;;
6432;SDS011;3249;42.690;23.260;2023-05-10T11:08:17;9.83;;;8.90;;
6432;SDS011;3249;42.690;23.260;2023-05-10T11:11:03;10.33;;;9.33;;
6432;SDS011;3249;42.690;23.260;2023-05-10T11:13:38;10.30;;;9.17;;
6432;SDS011;3249;42.690;23.260;2023-05-10T11:16:18;10.87;;;9.90;;
6432;SDS011;3249;42.690;23.260;2023-05-10T11:18:56;10.30;;;9.30;;
6432;SDS011;3249;42.690;23.260;2023-05-10T11:21:29;10.53;;;9.33;;
6432;SDS011;3249;42.690;23.260;2023-05-10T11:23:59;11.03;;;9.00;;
6432;SDS011;3249;42.690;23.260;2023-05-10T11:26:31;10.40;;;9.30;;
6432;SDS011;3249;42.690;23.260;2023-05-10T11:29:04;9.57;;;8.67;;
6432;SDS011;3249;42.690;23.260;2023-05-10T11:31:33;9.30;;;8.50;;
6432;SDS011;3249;42.690;23.260;2023-05-10T11:34:06;8.53;;;7.93;;
6432;SDS011;3249;42.690;23.260;2023-05-10T11:36:35;14.27;;;9.67;;
6432;SDS011;3249;42.690;23.260;2023-05-10T11:39:05;9.63;;;8.83;;
6432;SDS011;3249;42.690;23.260;2023-05-10T11:41:35;9.70;;;8.70;;
6432;SDS011;3249;42.690;23.260;2023-05-10T11:44:05;9.03;;;8.33;;
6432;SDS011;3249;42.690;23.260;2023-05-10T11:46:36;15.67;;;9.37;;
6432;SDS011;3249;42.690;23.260;2023-05-10T11:49:08;9.40;;;8.50;;
6432;SDS011;3249;42.690;23.260;2023-05-10T11:51:38;9.90;;;8.90;;
6432;SDS011;3249;42.690;23.260;2023-05-10T11:54:09;8.53;;;7.67;;
6432;SDS011;3249;42.690;23.260;2023-05-10T11:56:39;13.17;;;9.93;;
6432;SDS011;3249;42.690;23.260;2023-05-10T11:59:10;10.53;;;8.43;;
6432;SDS011;3249;42.690;23.260;2023-05-10T12:01:42;10.40;;;9.03;;
6432;SDS011;3249;42.690;23.260;2023-05-10T12:04:15;13.10;;;9.27;;
6432;SDS011;3249;42.690;23.260;2023-05-10T12:06:44;11.40;;;9.13;;
6432;SDS011;3249;42.690;23.260;2023-05-10T12:09:14;9.90;;;8.93;;
6432;SDS011;3249;42.690;23.260;2023-05-10T12:11:43;10.10;;;9.07;;
6432;SDS011;3249;42.690;23.260;2023-05-10T12:14:12;13.03;;;9.03;;
6432;SDS011;3249;42.690;23.260;2023-05-10T12:16:42;10.50;;;9.40;;
6432;SDS011;3249;42.690;23.260;2023-05-10T12:19:12;11.70;;;10.60;;
6432;SDS011;3249;42.690;23.260;2023-05-10T12:21:46;11.30;;;10.20;;
6432;SDS011;3249;42.690;23.260;2023-05-10T12:24:16;11.70;;;10.60;;
6432;SDS011;3249;42.690;23.260;2023-05-10T12:26:47;12.10;;;10.53;;
6432;SDS011;3249;42.690;23.260;2023-05-10T12:29:18;11.57;;;10.37;;
6432;SDS011;3249;42.690;23.260;2023-05-10T12:31:49;10.90;;;9.97;;
6432;SDS011;3249;42.690;23.260;2023-05-10T12:34:25;14.03;;;10.97;;
6432;SDS011;3249;42.690;23.260;2023-05-10T12:36:55;10.67;;;9.67;;
6432;SDS011;3249;42.690;23.260;2023-05-10T12:39:25;13.37;;;11.13;;
6432;SDS011;3249;42.690;23.260;2023-05-10T12:41:54;10.70;;;9.60;;
6432;SDS011;3249;42.690;23.260;2023-05-10T12:44:24;11.87;;;10.03;;
6432;SDS011;3249;42.690;23.260;2023-05-10T12:46:52;12.63;;;11.40;;
6432;SDS011;3249;42.690;23.260;2023-05-10T12:49:21;9.53;;;8.63;;
6432;SDS011;3249;42.690;23.260;2023-05-10T12:51:53;11.50;;;8.93;;
6432;SDS011;3249;42.690;23.260;2023-05-10T12:54:23;11.63;;;10.10;;
6432;SDS011;3249;42.690;23.260;2023-05-10T12:56:53;11.33;;;10.33;;
6432;SDS011;3249;42.690;23.260;2023-05-10T12:59:22;11.27;;;9.93;;
6432;SDS011;3249;42.690;23.260;2023-05-10T13:01:51;11.77;;;10.17;;
6432;SDS011;3249;42.690;23.260;2023-05-10T13:04:20;15.17;;;11.87;;
6432;SDS011;3249;42.690;23.260;2023-05-10T13:06:50;11.97;;;10.57;;
6432;SDS011;3249;42.690;23.260;2023-05-10T13:09:24;12.30;;;10.70;;
6432;SDS011;3249;42.690;23.260;2023-05-10T13:11:54;11.67;;;9.27;;
6432;SDS011;3249;42.690;23.260;2023-05-10T13:14:24;11.83;;;10.10;;
6432;SDS011;3249;42.690;23.260;2023-05-10T13:16:54;11.80;;;10.53;;
6432;SDS011;3249;42.690;23.260;2023-05-10T13:19:23;11.33;;;10.37;;
6432;SDS011;3249;42.690;23.260;2023-05-10T13:21:54;11.70;;;10.50;;
6432;SDS011;3249;42.690;23.260;2023-05-10T13:24:23;22.63;;;11.07;;
6432;SDS011;3249;42.690;23.260;2023-05-10T13:26:52;12.03;;;9.53;;
6432;SDS011;3249;42.690;23.260;2023-05-10T13:29:21;12.13;;;10.93;;
6432;SDS011;3249;42.690;23.260;2023-05-10T13:31:50;11.37;;;10.37;;
6432;SDS011;3249;42.690;23.260;2023-05-10T13:34:19;11.17;;;9.97;;
6432;SDS011;3249;42.690;23.260;2023-05-10T13:36:49;12.43;;;11.00;;
6432;SDS011;3249;42.690;23.260;2023-05-10T13:39:22;11.67;;;10.57;;
6432;SDS011;3249;42.690;23.260;2023-05-10T13:41:51;12.10;;;9.43;;
6432;SDS011;3249;42.690;23.260;2023-05-10T13:44:20;12.23;;;10.73;;
6432;SDS011;3249;42.690;23.260;2023-05-10T13:46:49;12.73;;;10.97;;
6432;SDS011;3249;42.690;23.260;2023-05-10T13:49:18;12.83;;;10.13;;
6432;SDS011;3249;42.690;23.260;2023-05-10T13:51:47;11.53;;;9.07;;
6432;SDS011;3249;42.690;23.260;2023-05-10T13:54:16;13.83;;;10.47;;
6432;SDS011;3249;42.690;23.260;2023-05-10T13:56:50;11.13;;;9.90;;
6432;SDS011;3249;42.690;23.260;2023-05-10T13:59:19;14.40;;;11.23;;
6432;SDS011;3249;42.690;23.260;2023-05-10T14:01:48;10.87;;;9.60;;
6432;SDS011;3249;42.690;23.260;2023-05-10T14:04:17;11.13;;;9.87;;
6432;SDS011;3249;42.690;23.260;2023-05-10T14:06:47;11.13;;;10.03;;
6432;SDS011;3249;42.690;23.260;2023-05-10T14:09:16;14.17;;;11.13;;
6432;SDS011;3249;42.690;23.260;2023-05-10T14:11:45;15.90;;;11.27;;
6432;SDS011;3249;42.690;23.260;2023-05-10T14:14:17;11.60;;;9.97;;
6432;SDS011;3249;42.690;23.260;2023-05-10T14:16:46;9.50;;;8.33;;
6432;SDS011;3249;42.690;23.260;2023-05-10T14:19:15;9.40;;;8.50;;
6432;SDS011;3249;42.690;23.260;2023-05-10T14:21:44;12.80;;;10.43;;
6432;SDS011;3249;42.690;23.260;2023-05-10T14:24:13;20.83;;;11.10;;
6432;SDS011;3249;42.690;23.260;2023-05-10T14:26:42;13.13;;;9.90;;
6432;SDS011;3249;42.690;23.260;2023-05-10T14:29:12;15.60;;;10.70;;
6432;SDS011;3249;42.690;23.260;2023-05-10T14:31:44;14.03;;;10.00;;
6432;SDS011;3249;42.690;23.260;2023-05-10T14:34:14;14.43;;;10.27;;
6432;SDS011;3249;42.690;23.260;2023-05-10T14:36:43;10.07;;;9.03;;
6432;SDS011;3249;42.690;23.260;2023-05-10T14:39:12;11.20;;;10.03;;
6432;SDS011;3249;42.690;23.260;2023-05-10T14:41:41;10.67;;;9.57;;
6432;SDS011;3249;42.690;23.260;2023-05-10T14:44:13;11.13;;;10.03;;
6432;SDS011;3249;42.690;23.260;2023-05-10T14:46:46;11.87;;;10.67;;
6432;SDS011;3249;42.690;23.260;2023-05-10T14:49:15;11.57;;;10.57;;
6432;SDS011;3249;42.690;23.260;2023-05-10T14:51:44;12.90;;;11.50;;
6432;SDS011;3249;42.690;23.260;2023-05-10T14:54:13;13.97;;;9.63;;
6432;SDS011;3249;42.690;23.260;2023-05-10T14:56:43;12.47;;;11.17;;
6432;SDS011;3249;42.690;23.260;2023-05-10T14:59:14;13.50;;;10.80;;
6432;SDS011;3249;42.690;23.260;2023-05-10T15:01:46;11.57;;;10.27;;
6432;SDS011;3249;42.690;23.260;2023-05-10T15:04:16;13.40;;;10.40;;
6432;SDS011;3249;42.690;23.260;2023-05-10T15:06:46;13.90;;;12.30;;
6432;SDS011;3249;42.690;23.260;2023-05-10T15:09:15;19.63;;;11.53;;
6432;SDS011;3249;42.690;23.260;2023-05-10T15:11:44;17.67;;;10.70;;
6432;SDS011;3249;42.690;23.260;2023-05-10T15:14:14;11.43;;;9.27;;
6432;SDS011;3249;42.690;23.260;2023-05-10T15:16:46;10.60;;;9.43;;
6432;SDS011;3249;42.690;23.260;2023-05-10T15:19:15;10.27;;;9.40;;